createdAt,value
2022-11-05T00:00:02.305Z,9.718862
2022-11-05T00:01:02.290Z,9.718928
2022-11-05T00:02:02.267Z,9.719007
2022-11-05T00:03:02.207Z,9.719291
2022-11-05T00:04:02.250Z,9.719415
2022-11-05T00:05:02.221Z,9.719228
2022-11-05T00:06:02.192Z,9.719015
2022-11-05T00:07:02.176Z,9.718843
2022-11-05T00:08:02.229Z,9.718959
2022-11-05T00:09:02.154Z,9.719132
2022-11-05T00:10:02.162Z,9.719044
2022-11-05T00:11:02.147Z,9.719110
2022-11-05T00:12:03.161Z,9.719073
2022-11-05T00:13:02.266Z,9.719085
2022-11-05T00:14:02.115Z,9.719058
2022-11-05T00:15:02.125Z,9.719254
2022-11-05T00:16:02.077Z,9.719310
2022-11-05T00:17:02.062Z,9.719404
2022-11-05T00:18:02.075Z,9.719222
2022-11-05T00:19:02.069Z,9.719205
2022-11-05T00:20:02.071Z,9.719151
2022-11-05T00:21:02.024Z,9.719166
2022-11-05T00:22:02.022Z,9.719218
2022-11-05T00:23:02.001Z,9.719126
2022-11-05T00:24:01.999Z,9.719157
2022-11-05T00:25:02.010Z,9.719131
2022-11-05T00:26:01.963Z,9.719177
2022-11-05T00:27:02.003Z,9.719155
2022-11-05T00:28:01.962Z,9.719136
2022-11-05T00:29:01.959Z,9.719106
2022-11-05T00:30:01.945Z,9.719198
2022-11-05T00:31:01.920Z,9.719235
2022-11-05T00:32:01.933Z,9.719180
2022-11-05T00:33:01.947Z,9.719120
2022-11-05T00:34:01.912Z,9.719178
2022-11-05T00:35:01.914Z,9.719094
2022-11-05T00:36:01.886Z,9.719248
2022-11-05T00:37:01.895Z,9.719228
2022-11-05T00:38:01.923Z,9.719288
2022-11-05T00:39:01.907Z,9.719260
2022-11-05T00:40:01.859Z,9.719234
2022-11-05T00:41:01.837Z,9.719146
2022-11-05T00:42:01.826Z,9.719086
2022-11-05T00:43:01.843Z,9.719218
2022-11-05T00:44:01.812Z,9.719242
2022-11-05T00:45:01.894Z,9.719168
2022-11-05T00:46:01.823Z,9.719182
2022-11-05T00:47:01.774Z,9.719234
2022-11-05T00:48:01.772Z,9.719154
2022-11-05T00:49:01.776Z,9.719190
2022-11-05T00:50:01.826Z,9.719180
2022-11-05T00:51:01.739Z,9.719084
2022-11-05T00:52:01.735Z,9.719205
2022-11-05T00:53:01.743Z,9.719265
2022-11-05T00:54:01.694Z,9.719342
2022-11-05T00:55:01.694Z,9.719439
2022-11-05T00:56:01.724Z,9.718981
2022-11-05T00:57:04.657Z,9.719146
2022-11-05T00:58:02.670Z,9.718896
2022-11-05T00:59:01.656Z,9.719153
2022-11-05T01:00:01.706Z,9.719312
2022-11-05T01:01:01.708Z,9.719349
2022-11-05T01:02:01.709Z,9.719526
2022-11-05T01:03:01.659Z,9.719431
2022-11-05T01:04:01.618Z,9.719230
2022-11-05T01:05:01.714Z,9.719238
2022-11-05T01:06:01.608Z,9.719212
2022-11-05T01:07:02.572Z,9.719244
2022-11-05T01:08:01.592Z,9.719311
2022-11-05T01:09:01.568Z,9.719283
2022-11-05T01:10:01.547Z,9.719316
2022-11-05T01:11:01.605Z,9.719279
2022-11-05T01:12:01.556Z,9.719190
2022-11-05T01:13:01.536Z,9.719225
2022-11-05T01:14:01.516Z,9.719232
2022-11-05T01:15:01.511Z,9.719265
2022-11-05T01:16:01.538Z,9.719252
2022-11-05T01:17:01.491Z,9.719246
2022-11-05T01:18:01.474Z,9.719229
2022-11-05T01:19:01.481Z,9.719122
2022-11-05T01:20:01.495Z,9.719141
2022-11-05T01:21:01.459Z,9.719164
2022-11-05T01:22:01.447Z,9.719120
2022-11-05T01:23:01.448Z,9.719208
2022-11-05T01:24:01.439Z,9.719207
2022-11-05T01:25:01.423Z,9.719220
2022-11-05T01:26:01.418Z,9.719179
2022-11-05T01:27:01.388Z,9.719172
2022-11-05T01:28:01.392Z,9.719213
2022-11-05T01:29:01.814Z,9.719248
2022-11-05T01:30:01.352Z,9.719348
2022-11-05T01:31:01.351Z,9.719286
2022-11-05T01:32:01.354Z,9.719223
2022-11-05T01:33:01.355Z,9.719236
2022-11-05T01:34:01.327Z,9.719131
2022-11-05T01:35:01.348Z,9.719184
2022-11-05T01:36:01.494Z,9.719284
2022-11-05T01:37:01.285Z,9.719271
2022-11-05T01:38:01.752Z,9.719194
2022-11-05T01:39:01.285Z,9.719203
2022-11-05T01:40:01.291Z,9.719138
2022-11-05T01:41:01.303Z,9.719266
2022-11-05T01:42:01.297Z,9.719253
2022-11-05T01:43:01.258Z,9.719190
2022-11-05T01:44:01.234Z,9.719268
2022-11-05T01:45:02.885Z,9.719197
2022-11-05T01:46:01.426Z,9.719269
2022-11-05T01:47:01.212Z,9.719297
2022-11-05T01:48:01.189Z,9.719213
2022-11-05T01:49:03.280Z,9.719230
2022-11-05T01:50:02.187Z,9.719257
2022-11-05T01:51:01.180Z,9.719224
2022-11-05T01:52:01.139Z,9.719159
2022-11-05T01:53:01.237Z,9.719231
2022-11-05T01:54:01.140Z,9.719129
2022-11-05T01:55:01.106Z,9.719214
2022-11-05T01:56:01.101Z,9.719349
2022-11-05T01:57:01.113Z,9.719254
2022-11-05T01:58:01.103Z,9.719274
2022-11-05T01:59:01.111Z,9.719190
2022-11-05T02:00:02.084Z,9.719191
2022-11-05T02:01:01.051Z,9.719197
2022-11-05T02:02:01.235Z,9.719043
2022-11-05T02:03:01.114Z,9.719184
2022-11-05T02:04:01.036Z,9.719237
2022-11-05T02:05:01.021Z,9.719238
2022-11-05T02:06:01.078Z,9.719201
2022-11-05T02:07:01.001Z,9.719168
2022-11-05T02:08:00.995Z,9.719142
2022-11-05T02:09:01.045Z,9.719090
2022-11-05T02:10:00.988Z,9.719108
2022-11-05T02:11:00.977Z,9.719034
2022-11-05T02:12:00.962Z,9.719075
2022-11-05T02:13:00.957Z,9.719243
2022-11-05T02:14:00.956Z,9.719189
2022-11-05T02:15:00.994Z,9.719170
2022-11-05T02:16:00.911Z,9.719188
2022-11-05T02:17:00.909Z,9.719191
2022-11-05T02:18:00.912Z,9.719187
2022-11-05T02:19:00.897Z,9.719221
2022-11-05T02:20:00.937Z,9.719268
2022-11-05T02:21:00.887Z,9.719200
2022-11-05T02:22:00.876Z,9.719230
2022-11-05T02:23:00.858Z,9.719234
2022-11-05T02:24:00.848Z,9.719215
2022-11-05T02:25:00.840Z,9.719258
2022-11-05T02:26:00.843Z,9.719328
2022-11-05T02:27:00.808Z,9.719260
2022-11-05T02:28:00.824Z,9.719171
2022-11-05T02:29:00.807Z,9.719119
2022-11-05T02:30:00.773Z,9.719066
2022-11-05T02:31:00.793Z,9.719081
2022-11-05T02:32:06.671Z,9.719182
2022-11-05T02:33:00.764Z,9.719222
2022-11-05T02:34:00.756Z,9.719213
2022-11-05T02:35:00.741Z,9.719209
2022-11-05T02:36:00.761Z,9.719189
2022-11-05T02:37:00.731Z,9.719226
2022-11-05T02:38:00.750Z,9.719271
2022-11-05T02:39:00.703Z,9.719329
2022-11-05T02:40:00.671Z,9.719309
2022-11-05T02:41:00.688Z,9.719383
2022-11-05T02:42:04.997Z,9.719359
2022-11-05T02:43:01.648Z,9.719348
2022-11-05T02:44:00.631Z,9.719327
2022-11-05T02:45:00.619Z,9.719340
2022-11-05T02:46:00.636Z,9.719337
2022-11-05T02:47:00.592Z,9.719266
2022-11-05T02:48:00.612Z,9.719262
2022-11-05T02:49:00.583Z,9.719249
2022-11-05T02:50:00.587Z,9.719240
2022-11-05T02:51:00.568Z,9.719222
2022-11-05T02:52:00.562Z,9.719292
2022-11-05T02:53:00.551Z,9.719423
2022-11-05T02:54:00.533Z,9.719546
2022-11-05T02:55:00.524Z,9.719537
2022-11-05T02:56:00.510Z,9.719558
2022-11-05T02:57:00.519Z,9.719638
2022-11-05T02:58:00.574Z,9.719486
2022-11-05T02:59:00.481Z,9.719647
2022-11-05T03:00:00.476Z,9.719534
2022-11-05T03:01:00.465Z,9.719602
2022-11-05T03:02:00.604Z,9.719555
2022-11-05T03:03:00.495Z,9.719187
2022-11-05T03:04:00.437Z,9.719246
2022-11-05T03:05:00.428Z,9.719244
2022-11-05T03:06:00.444Z,9.719152
2022-11-05T03:07:00.427Z,9.719271
2022-11-05T03:08:00.404Z,9.719356
2022-11-05T03:09:00.420Z,9.719201
2022-11-05T03:10:00.384Z,9.719034
2022-11-05T03:11:00.372Z,9.719156
2022-11-05T03:12:00.379Z,9.719266
2022-11-05T03:13:00.351Z,9.719321
2022-11-05T03:14:00.408Z,9.719236
2022-11-05T03:15:00.333Z,9.718899
2022-11-05T03:16:00.320Z,9.718837
2022-11-05T03:17:00.330Z,9.719226
2022-11-05T03:18:00.291Z,9.719283
2022-11-05T03:19:00.288Z,9.719355
2022-11-05T03:20:00.273Z,9.719323
2022-11-05T03:21:00.280Z,9.719172
2022-11-05T03:22:00.270Z,9.719190
2022-11-05T03:23:00.274Z,9.719168
2022-11-05T03:24:00.259Z,9.719227
2022-11-05T03:25:00.228Z,9.719254
2022-11-05T03:26:00.204Z,9.719396
2022-11-05T03:27:00.215Z,9.719240
2022-11-05T03:28:00.194Z,9.719340
2022-11-05T03:29:00.251Z,9.719309
2022-11-05T03:30:00.183Z,9.719209
2022-11-05T03:31:00.172Z,9.719297
2022-11-05T03:32:00.163Z,9.719286
2022-11-05T03:33:00.153Z,9.719243
2022-11-05T03:34:00.154Z,9.719497
2022-11-05T03:35:00.135Z,9.719478
2022-11-05T03:36:00.122Z,9.719355
2022-11-05T03:37:00.143Z,9.719355
2022-11-05T03:38:00.121Z,9.719376
2022-11-05T03:39:00.189Z,9.719376
2022-11-05T03:40:00.121Z,9.719376
2022-11-05T03:41:00.094Z,9.719376
2022-11-05T03:42:00.075Z,9.719703
2022-11-05T03:43:00.106Z,9.719558
2022-11-05T03:44:00.050Z,9.719558
2022-11-05T03:45:00.051Z,9.719558
2022-11-05T03:46:00.090Z,9.719558
2022-11-05T03:47:00.012Z,9.719558
2022-11-05T03:48:00.055Z,9.719558
2022-11-05T03:49:00.040Z,9.719558
2022-11-05T03:49:59.990Z,9.719558
2022-11-05T03:50:59.984Z,9.719558
2022-11-05T03:51:59.976Z,9.719558
2022-11-05T03:53:00.011Z,9.719558
2022-11-05T03:53:59.962Z,9.719558
2022-11-05T03:54:59.947Z,9.719041
2022-11-05T03:55:59.930Z,9.718814
2022-11-05T03:56:59.965Z,9.718863
2022-11-05T03:57:59.930Z,9.719574
2022-11-05T03:58:59.898Z,9.719631
2022-11-05T03:59:59.897Z,9.719412
2022-11-05T04:00:59.913Z,9.719256
2022-11-05T04:02:00.033Z,9.719119
2022-11-05T04:02:59.937Z,9.718893
2022-11-05T04:04:00.856Z,9.718912
2022-11-05T04:04:59.867Z,9.718921
2022-11-05T04:05:59.914Z,9.718898
2022-11-05T04:06:59.822Z,9.718919
2022-11-05T04:07:59.819Z,9.719069
2022-11-05T04:08:59.797Z,9.718951
2022-11-05T04:09:59.794Z,9.718828
2022-11-05T04:10:59.806Z,9.718715
2022-11-05T04:11:59.855Z,9.718875
2022-11-05T04:12:59.778Z,9.718967
2022-11-05T04:13:59.766Z,9.718896
2022-11-05T04:14:59.760Z,9.718919
2022-11-05T04:15:59.738Z,9.718890
2022-11-05T04:16:59.728Z,9.718847
2022-11-05T04:17:59.741Z,9.718954
2022-11-05T04:18:59.706Z,9.718910
2022-11-05T04:19:59.701Z,9.718891
2022-11-05T04:20:59.673Z,9.718880
2022-11-05T04:22:00.693Z,9.718790
2022-11-05T04:22:59.675Z,9.718737
2022-11-05T04:23:59.721Z,9.718893
2022-11-05T04:24:59.649Z,9.718656
2022-11-05T04:25:59.640Z,9.718828
2022-11-05T04:26:59.693Z,9.718729
2022-11-05T04:27:59.622Z,9.718847
2022-11-05T04:29:02.557Z,9.718690
2022-11-05T04:30:01.589Z,9.718815
2022-11-05T04:30:59.579Z,9.719111
2022-11-05T04:31:59.592Z,9.719125
2022-11-05T04:32:59.567Z,9.718979
2022-11-05T04:33:59.558Z,9.719049
2022-11-05T04:34:59.548Z,9.719006
2022-11-05T04:35:59.583Z,9.719110
2022-11-05T04:36:59.569Z,9.719094
2022-11-05T04:37:59.517Z,9.718975
2022-11-05T04:38:59.515Z,9.718989
2022-11-05T04:39:59.665Z,9.719057
2022-11-05T04:40:59.486Z,9.719022
2022-11-05T04:41:59.479Z,9.719173
2022-11-05T04:42:59.473Z,9.719218
2022-11-05T04:43:59.474Z,9.719209
2022-11-05T04:44:59.458Z,9.719122
2022-11-05T04:45:59.443Z,9.719172
2022-11-05T04:46:59.457Z,9.719088
2022-11-05T04:47:59.415Z,9.719077
2022-11-05T04:48:59.456Z,9.719067
2022-11-05T04:49:59.415Z,9.719092
2022-11-05T04:50:59.390Z,9.719081
2022-11-05T04:51:59.402Z,9.719077
2022-11-05T04:52:59.377Z,9.719078
2022-11-05T04:53:59.395Z,9.719068
2022-11-05T04:54:59.350Z,9.719128
2022-11-05T04:55:59.417Z,9.719172
2022-11-05T04:56:59.354Z,9.719103
2022-11-05T04:57:59.324Z,9.719056
2022-11-05T04:58:59.354Z,9.719019
2022-11-05T04:59:59.302Z,9.719030
2022-11-05T05:00:59.353Z,9.719088
2022-11-05T05:01:59.335Z,9.719089
2022-11-05T05:02:59.273Z,9.719078
2022-11-05T05:03:59.271Z,9.719103
2022-11-05T05:04:59.307Z,9.719113
2022-11-05T05:06:03.576Z,9.719056
2022-11-05T05:07:00.252Z,9.719120
2022-11-05T05:07:59.227Z,9.719158
2022-11-05T05:08:59.216Z,9.719037
2022-11-05T05:09:59.230Z,9.718781
2022-11-05T05:10:59.195Z,9.719064
2022-11-05T05:11:59.177Z,9.719494
2022-11-05T05:12:59.177Z,9.719494
2022-11-05T05:13:59.185Z,9.719494
2022-11-05T05:14:59.171Z,9.719494
2022-11-05T05:15:59.157Z,9.719494
2022-11-05T05:16:59.132Z,9.719494
2022-11-05T05:17:59.152Z,9.718802
2022-11-05T05:18:59.118Z,9.718932
2022-11-05T05:19:59.107Z,9.719534
2022-11-05T05:20:59.119Z,9.719748
2022-11-05T05:21:59.077Z,9.719135
2022-11-05T05:22:59.109Z,9.719601
2022-11-05T05:23:59.081Z,9.719677
2022-11-05T05:24:59.060Z,9.719480
2022-11-05T05:25:59.105Z,9.719325
2022-11-05T05:26:59.052Z,9.719264
2022-11-05T05:27:59.152Z,9.718536
2022-11-05T05:28:59.021Z,9.719153
2022-11-05T05:29:59.010Z,9.719288
2022-11-05T05:30:58.999Z,9.719142
2022-11-05T05:31:59.037Z,9.718827
2022-11-05T05:32:59.063Z,9.718827
2022-11-05T05:33:58.988Z,9.718827
2022-11-05T05:34:58.991Z,9.718827
2022-11-05T05:35:59.014Z,9.718827
2022-11-05T05:36:58.927Z,9.718827
2022-11-05T05:37:58.932Z,9.718827
2022-11-05T05:38:58.935Z,9.718827
2022-11-05T05:39:58.962Z,9.719169
2022-11-05T05:40:58.894Z,9.719149
2022-11-05T05:41:58.882Z,9.719096
2022-11-05T05:42:58.865Z,9.719276
2022-11-05T05:43:59.883Z,9.719261
2022-11-05T05:44:58.863Z,9.719398
2022-11-05T05:45:58.849Z,9.719080
2022-11-05T05:46:58.842Z,9.718726
2022-11-05T05:47:58.828Z,9.718877
2022-11-05T05:48:58.839Z,9.719047
2022-11-05T05:49:58.927Z,9.719086
2022-11-05T05:50:58.792Z,9.718989
2022-11-05T05:51:58.795Z,9.719034
2022-11-05T05:52:58.786Z,9.719080
2022-11-05T05:53:58.774Z,9.719035
2022-11-05T05:54:58.779Z,9.719184
2022-11-05T05:55:58.753Z,9.719089
2022-11-05T05:56:58.799Z,9.719102
2022-11-05T05:57:58.732Z,9.719082
2022-11-05T05:58:58.734Z,9.719110
2022-11-05T05:59:59.715Z,9.719144
2022-11-05T06:00:58.726Z,9.719152
2022-11-05T06:01:58.820Z,9.719163
2022-11-05T06:02:58.721Z,9.719109
2022-11-05T06:03:58.675Z,9.719141
2022-11-05T06:04:58.728Z,9.719093
2022-11-05T06:05:58.680Z,9.719133
2022-11-05T06:06:58.668Z,9.718991
2022-11-05T06:07:58.639Z,9.718978
2022-11-05T06:08:58.621Z,9.719112
2022-11-05T06:09:58.639Z,9.719152
2022-11-05T06:10:58.662Z,9.719039
2022-11-05T06:11:58.616Z,9.719014
2022-11-05T06:12:58.581Z,9.719016
2022-11-05T06:13:58.622Z,9.719131
2022-11-05T06:14:58.578Z,9.719057
2022-11-05T06:15:58.563Z,9.719071
2022-11-05T06:16:58.559Z,9.718842
2022-11-05T06:17:58.558Z,9.719074
2022-11-05T06:18:58.530Z,9.718995
2022-11-05T06:19:58.523Z,9.719125
2022-11-05T06:20:58.513Z,9.719249
2022-11-05T06:21:58.520Z,9.719254
2022-11-05T06:22:58.482Z,9.719161
2022-11-05T06:23:58.563Z,9.719269
2022-11-05T06:24:58.482Z,9.719048
2022-11-05T06:25:58.459Z,9.719231
2022-11-05T06:26:58.490Z,9.719094
2022-11-05T06:27:58.445Z,9.719230
2022-11-05T06:28:58.460Z,9.719159
2022-11-05T06:29:58.481Z,9.719183
2022-11-05T06:30:58.406Z,9.719190
2022-11-05T06:31:58.390Z,9.719198
2022-11-05T06:32:58.388Z,9.719211
2022-11-05T06:33:58.422Z,9.719197
2022-11-05T06:34:58.391Z,9.719214
2022-11-05T06:35:58.387Z,9.719319
2022-11-05T06:36:58.350Z,9.719300
2022-11-05T06:37:58.330Z,9.719110
2022-11-05T06:38:58.320Z,9.719102
2022-11-05T06:39:58.341Z,9.719223
2022-11-05T06:40:58.339Z,9.719162
2022-11-05T06:42:17.061Z,9.719234
2022-11-05T06:43:00.285Z,9.719217
2022-11-05T06:43:58.289Z,9.719085
2022-11-05T06:44:58.277Z,9.719060
2022-11-05T06:45:58.332Z,9.718977
2022-11-05T06:46:58.258Z,9.719138
2022-11-05T06:47:58.262Z,9.719311
2022-11-05T06:48:58.232Z,9.719290
2022-11-05T06:49:58.222Z,9.719335
2022-11-05T06:50:58.228Z,9.719296
2022-11-05T06:51:58.210Z,9.719341
2022-11-05T06:52:58.210Z,9.719213
2022-11-05T06:53:58.183Z,9.719311
2022-11-05T06:54:58.192Z,9.719254
2022-11-05T06:55:58.175Z,9.719261
2022-11-05T06:56:58.157Z,9.719084
2022-11-05T06:57:58.138Z,9.719059
2022-11-05T06:58:58.136Z,9.718970
2022-11-05T07:00:02.307Z,9.719117
2022-11-05T07:00:59.189Z,9.719325
2022-11-05T07:01:58.172Z,9.719167
2022-11-05T07:02:58.091Z,9.719183
2022-11-05T07:03:58.088Z,9.719196
2022-11-05T07:04:58.169Z,9.719215
2022-11-05T07:05:58.092Z,9.719193
2022-11-05T07:06:58.081Z,9.719193
2022-11-05T07:07:58.051Z,9.718975
2022-11-05T07:08:58.044Z,9.718978
2022-11-05T07:09:58.070Z,9.719103
2022-11-05T07:10:58.012Z,9.719059
2022-11-05T07:11:58.038Z,9.719136
2022-11-05T07:12:57.999Z,9.719199
2022-11-05T07:13:57.990Z,9.719038
2022-11-05T07:14:57.999Z,9.718821
2022-11-05T07:15:57.967Z,9.718962
2022-11-05T07:16:58.008Z,9.719182
2022-11-05T07:17:57.982Z,9.719248
2022-11-05T07:18:57.927Z,9.719213
2022-11-05T07:19:57.922Z,9.719341
2022-11-05T07:20:57.954Z,9.719295
2022-11-05T07:21:57.925Z,9.719264
2022-11-05T07:22:57.899Z,9.719286
2022-11-05T07:23:57.877Z,9.719162
2022-11-05T07:24:57.868Z,9.719108
2022-11-05T07:25:57.927Z,9.719131
2022-11-05T07:26:57.850Z,9.719221
2022-11-05T07:27:57.848Z,9.719193
2022-11-05T07:28:57.939Z,9.719166
2022-11-05T07:29:57.833Z,9.719099
2022-11-05T07:30:57.871Z,9.719106
2022-11-05T07:31:57.823Z,9.719130
2022-11-05T07:32:57.801Z,9.719084
2022-11-05T07:33:57.784Z,9.719112
2022-11-05T07:34:57.767Z,9.719233
2022-11-05T07:35:58.766Z,9.719182
2022-11-05T07:36:57.787Z,9.718941
2022-11-05T07:37:57.784Z,9.719008
2022-11-05T07:39:00.462Z,9.719228
2022-11-05T07:39:58.726Z,9.719209
2022-11-05T07:40:57.707Z,9.719131
2022-11-05T07:41:57.733Z,9.718922
2022-11-05T07:42:57.691Z,9.718726
2022-11-05T07:43:57.724Z,9.718841
2022-11-05T07:44:57.707Z,9.719023
2022-11-05T07:45:57.663Z,9.719081
2022-11-05T07:46:57.678Z,9.718961
2022-11-05T07:47:57.658Z,9.718928
2022-11-05T07:48:57.637Z,9.718754
2022-11-05T07:49:57.652Z,9.718993
2022-11-05T07:50:57.626Z,9.718987
2022-11-05T07:51:57.611Z,9.718884
2022-11-05T07:52:57.649Z,9.718705
2022-11-05T07:53:57.588Z,9.718740
2022-11-05T07:54:57.630Z,9.718746
2022-11-05T07:55:57.581Z,9.718907
2022-11-05T07:56:57.558Z,9.718696
2022-11-05T07:57:57.569Z,9.718689
2022-11-05T07:58:57.536Z,9.718693
2022-11-05T07:59:57.529Z,9.718850
2022-11-05T08:00:57.648Z,9.718959
2022-11-05T08:01:57.678Z,9.718879
2022-11-05T08:03:00.932Z,9.718910
2022-11-05T08:03:58.489Z,9.718823
2022-11-05T08:04:57.535Z,9.718770
2022-11-05T08:05:57.494Z,9.718811
2022-11-05T08:06:57.469Z,9.718841
2022-11-05T08:07:57.456Z,9.718808
2022-11-05T08:08:57.439Z,9.719262
2022-11-05T08:09:57.439Z,9.719216
2022-11-05T08:10:57.448Z,9.718802
2022-11-05T08:12:02.695Z,9.718682
2022-11-05T08:12:59.408Z,9.718595
2022-11-05T08:13:57.402Z,9.718639
2022-11-05T08:14:57.386Z,9.718707
2022-11-05T08:15:57.379Z,9.718830
2022-11-05T08:16:57.427Z,9.718926
2022-11-05T08:17:57.367Z,9.718977
2022-11-05T08:18:57.353Z,9.719103
2022-11-05T08:19:57.346Z,9.719144
2022-11-05T08:20:57.341Z,9.719296
2022-11-05T08:22:18.337Z,9.719283
2022-11-05T08:22:57.348Z,9.719298
2022-11-05T08:23:57.342Z,9.719179
2022-11-05T08:24:58.665Z,9.719275
2022-11-05T08:25:57.289Z,9.719435
2022-11-05T08:26:57.300Z,9.719327
2022-11-05T08:27:57.314Z,9.719293
2022-11-05T08:28:57.251Z,9.719329
2022-11-05T08:29:57.241Z,9.719207
2022-11-05T08:31:16.126Z,9.719106
2022-11-05T08:31:57.246Z,9.719258
2022-11-05T08:33:29.114Z,9.719338
2022-11-05T08:34:02.157Z,9.719085
2022-11-05T08:34:58.260Z,9.719213
2022-11-05T08:35:57.183Z,9.719209
2022-11-05T08:36:57.163Z,9.719234
2022-11-05T08:37:57.164Z,9.719313
2022-11-05T08:38:57.154Z,9.719233
2022-11-05T08:39:57.188Z,9.719339
2022-11-05T08:40:57.193Z,9.719288
2022-11-05T08:41:57.125Z,9.719263
2022-11-05T08:42:57.162Z,9.719348
2022-11-05T08:43:57.107Z,9.719339
2022-11-05T08:44:57.114Z,9.719325
2022-11-05T08:45:57.181Z,9.719146
2022-11-05T08:46:57.070Z,9.719181
2022-11-05T08:47:57.062Z,9.719156
2022-11-05T08:48:57.144Z,9.719104
2022-11-05T08:49:57.036Z,9.719259
2022-11-05T08:50:57.040Z,9.719175
2022-11-05T08:51:57.047Z,9.719197
2022-11-05T08:52:57.010Z,9.719248
2022-11-05T08:53:57.018Z,9.719373
2022-11-05T08:54:57.004Z,9.719390
2022-11-05T08:56:18.009Z,9.719421
2022-11-05T08:56:56.991Z,9.719389
2022-11-05T08:57:56.979Z,9.719355
2022-11-05T08:58:56.952Z,9.719340
2022-11-05T08:59:56.961Z,9.719302
2022-11-05T09:01:01.822Z,9.719193
2022-11-05T09:01:58.983Z,9.719262
2022-11-05T09:02:56.919Z,9.719294
2022-11-05T09:03:56.902Z,9.719316
2022-11-05T09:04:56.905Z,9.719254
2022-11-05T09:05:56.891Z,9.719151
2022-11-05T09:06:56.884Z,9.719147
2022-11-05T09:08:00.977Z,9.719211
2022-11-05T09:08:57.895Z,9.719247
2022-11-05T09:09:56.983Z,9.719261
2022-11-05T09:10:56.875Z,9.719270
2022-11-05T09:12:11.702Z,9.719301
2022-11-05T09:12:58.814Z,9.719268
2022-11-05T09:13:56.824Z,9.719203
2022-11-05T09:14:56.798Z,9.719247
2022-11-05T09:15:56.799Z,9.719233
2022-11-05T09:16:56.824Z,9.719275
2022-11-05T09:17:56.811Z,9.719263
2022-11-05T09:18:56.750Z,9.719177
2022-11-05T09:19:56.733Z,9.719181
2022-11-05T09:20:56.748Z,9.719234
2022-11-05T09:22:15.660Z,9.719293
2022-11-05T09:22:56.741Z,9.719357
2022-11-05T09:23:56.712Z,9.719359
2022-11-05T09:24:56.684Z,9.719293
2022-11-05T09:25:56.688Z,9.719249
2022-11-05T09:26:56.728Z,9.719266
2022-11-05T09:27:56.684Z,9.719278
2022-11-05T09:28:56.647Z,9.719311
2022-11-05T09:29:56.700Z,9.719269
2022-11-05T09:30:56.663Z,9.719208
2022-11-05T09:31:56.644Z,9.719204
2022-11-05T09:32:56.618Z,9.719189
2022-11-05T09:33:56.588Z,9.719254
2022-11-05T09:34:56.584Z,9.719269
2022-11-05T09:35:56.629Z,9.719241
2022-11-05T09:36:56.564Z,9.719130
2022-11-05T09:38:00.780Z,9.719090
2022-11-05T09:38:57.568Z,9.719059
2022-11-05T09:39:56.650Z,9.719072
2022-11-05T09:40:56.553Z,9.718969
2022-11-05T09:41:56.514Z,9.719076
2022-11-05T09:42:57.564Z,9.719082
2022-11-05T09:43:56.541Z,9.719065
2022-11-05T09:44:56.504Z,9.719063
2022-11-05T09:45:56.482Z,9.719004
2022-11-05T09:46:56.469Z,9.719041
2022-11-05T09:47:56.451Z,9.718945
2022-11-05T09:48:56.449Z,9.718953
2022-11-05T09:49:56.455Z,9.719101
2022-11-05T09:50:56.465Z,9.719079
2022-11-05T09:51:56.555Z,9.718996
2022-11-05T09:52:56.654Z,9.719059
2022-11-05T09:53:56.406Z,9.719101
2022-11-05T09:54:56.389Z,9.719081
2022-11-05T09:55:56.412Z,9.719006
2022-11-05T09:56:56.368Z,9.718894
2022-11-05T09:57:56.374Z,9.718701
2022-11-05T09:58:56.445Z,9.718680
2022-11-05T09:59:56.342Z,9.718887
2022-11-05T10:00:56.397Z,9.718731
2022-11-05T10:01:56.542Z,9.718541
2022-11-05T10:02:56.328Z,9.718562
2022-11-05T10:03:56.324Z,9.718355
2022-11-05T10:04:56.463Z,9.718584
2022-11-05T10:05:56.317Z,9.718706
2022-11-05T10:06:56.279Z,9.718677
2022-11-05T10:07:56.295Z,9.718830
2022-11-05T10:08:56.272Z,9.718873
2022-11-05T10:09:56.274Z,9.718781
2022-11-05T10:10:56.229Z,9.718775
2022-11-05T10:11:56.287Z,9.718822
2022-11-05T10:12:57.230Z,9.718858
2022-11-05T10:13:56.218Z,9.718846
2022-11-05T10:14:56.234Z,9.718839
2022-11-05T10:15:56.187Z,9.718871
2022-11-05T10:16:56.167Z,9.718900
2022-11-05T10:17:56.340Z,9.718959
2022-11-05T10:18:56.160Z,9.719041
2022-11-05T10:19:56.225Z,9.719000
2022-11-05T10:20:56.141Z,9.718995
2022-11-05T10:22:11.476Z,9.718993
2022-11-05T10:22:58.229Z,9.719003
2022-11-05T10:23:56.176Z,9.719087
2022-11-05T10:24:56.101Z,9.718904
2022-11-05T10:25:56.106Z,9.718880
2022-11-05T10:26:56.152Z,9.718858
2022-11-05T10:27:56.086Z,9.718935
2022-11-05T10:28:56.059Z,9.718825
2022-11-05T10:29:56.051Z,9.718818
2022-11-05T10:30:56.036Z,9.718939
2022-11-05T10:31:56.034Z,9.719008
2022-11-05T10:32:56.136Z,9.719084
2022-11-05T10:33:56.002Z,9.719120
2022-11-05T10:34:55.995Z,9.719149
2022-11-05T10:35:55.981Z,9.718959
2022-11-05T10:36:55.980Z,9.718998
2022-11-05T10:37:55.993Z,9.719033
2022-11-05T10:38:55.957Z,9.719060
2022-11-05T10:39:55.941Z,9.719164
2022-11-05T10:40:55.959Z,9.719202
2022-11-05T10:41:55.921Z,9.719211
2022-11-05T10:42:56.040Z,9.719194
2022-11-05T10:43:55.917Z,9.719316
2022-11-05T10:44:55.900Z,9.719238
2022-11-05T10:45:55.895Z,9.719320
2022-11-05T10:46:55.886Z,9.719329
2022-11-05T10:47:55.891Z,9.719394
2022-11-05T10:48:55.938Z,9.719287
2022-11-05T10:49:55.868Z,9.719207
2022-11-05T10:50:55.924Z,9.719288
2022-11-05T10:51:55.866Z,9.719274
2022-11-05T10:52:55.896Z,9.719262
2022-11-05T10:54:01.383Z,9.719231
2022-11-05T10:54:56.820Z,9.719239
2022-11-05T10:55:55.812Z,9.719277
2022-11-05T10:56:55.787Z,9.719434
2022-11-05T10:57:55.771Z,9.719475
2022-11-05T10:58:55.834Z,9.719472
2022-11-05T10:59:55.760Z,9.719275
2022-11-05T11:00:55.830Z,9.719224
2022-11-05T11:01:55.892Z,9.719096
2022-11-05T11:02:55.720Z,9.719114
2022-11-05T11:03:55.740Z,9.718717
2022-11-05T11:04:55.747Z,9.718729
2022-11-05T11:05:55.714Z,9.718881
2022-11-05T11:06:55.685Z,9.718979
2022-11-05T11:07:55.675Z,9.718993
2022-11-05T11:08:55.693Z,9.718976
2022-11-05T11:09:55.703Z,9.718951
2022-11-05T11:10:55.670Z,9.718809
2022-11-05T11:11:55.664Z,9.719111
2022-11-05T11:12:55.701Z,9.719112
2022-11-05T11:13:55.617Z,9.719131
2022-11-05T11:14:55.605Z,9.719006
2022-11-05T11:15:55.676Z,9.719019
2022-11-05T11:16:55.610Z,9.719128
2022-11-05T11:17:55.581Z,9.719110
2022-11-05T11:18:55.608Z,9.719156
2022-11-05T11:19:55.551Z,9.719180
2022-11-05T11:20:55.543Z,9.719111
2022-11-05T11:21:55.533Z,9.719080
2022-11-05T11:22:55.559Z,9.719282
2022-11-05T11:23:55.527Z,9.719278
2022-11-05T11:24:55.507Z,9.719038
2022-11-05T11:25:55.492Z,9.719213
2022-11-05T11:26:55.491Z,9.719293
2022-11-05T11:27:55.487Z,9.719470
2022-11-05T11:28:55.556Z,9.719270
2022-11-05T11:29:55.478Z,9.719346
2022-11-05T11:30:55.479Z,9.719459
2022-11-05T11:31:55.448Z,9.719432
2022-11-05T11:32:55.423Z,9.719410
2022-11-05T11:33:55.433Z,9.719232
2022-11-05T11:34:55.539Z,9.719546
2022-11-05T11:35:55.431Z,9.719280
2022-11-05T11:36:55.392Z,9.719206
2022-11-05T11:37:56.382Z,9.719200
2022-11-05T11:38:55.382Z,9.719236
2022-11-05T11:39:55.395Z,9.719182
2022-11-05T11:40:55.360Z,9.719242
2022-11-05T11:41:55.390Z,9.719173
2022-11-05T11:42:55.341Z,9.719204
2022-11-05T11:43:55.317Z,9.719204